createdAt,value
2022-08-06T00:00:07.982Z,100656.88
2022-08-06T00:02:31.728Z,100653.72
2022-08-06T00:05:03.836Z,100652.31
2022-08-06T00:07:47.733Z,100648.88
2022-08-06T00:10:19.562Z,100650.66
2022-08-06T00:13:04.658Z,100644.72
2022-08-06T00:16:06.512Z,100645.69
2022-08-06T00:18:26.413Z,100648.34
2022-08-06T00:21:01.161Z,100644.88
2022-08-06T00:23:35.076Z,100647.63
2022-08-06T00:26:28.699Z,100647.22
2022-08-06T00:28:56.424Z,100653.47
2022-08-06T00:31:30.319Z,100649.31
2022-08-06T00:34:05.168Z,100641.63
2022-08-06T00:36:35.516Z,100654.97
2022-08-06T00:39:26.030Z,100654.72
2022-08-06T00:42:00.157Z,100656.09
2022-08-06T00:44:31.574Z,100650.63
2022-08-06T00:47:23.265Z,100648.34
2022-08-06T00:50:06.605Z,100645.13
2022-08-06T00:52:35.364Z,100647.47
2022-08-06T00:55:17.721Z,100643.59
2022-08-06T00:57:51.257Z,100642.53
2022-08-06T01:00:30.676Z,100633.19
2022-08-06T01:03:03.659Z,100643.31
2022-08-06T01:06:53.257Z,100636.47
2022-08-06T01:08:25.855Z,100636.88
2022-08-06T01:10:58.602Z,100637.41
2022-08-06T01:14:03.112Z,100639.50
2022-08-06T01:16:28.537Z,100645.66
2022-08-06T01:19:21.157Z,100644.56
2022-08-06T01:22:39.118Z,100648.13
2022-08-06T01:25:46.105Z,100633.41
2022-08-06T01:28:29.698Z,100633.66
2022-08-06T01:31:09.006Z,100632.25
2022-08-06T01:34:04.924Z,100621.72
2022-08-06T01:36:48.119Z,100615.00
2022-08-06T01:39:22.854Z,100621.53
2022-08-06T01:42:12.585Z,100609.84
2022-08-06T01:44:45.106Z,100606.66
2022-08-06T01:47:18.106Z,100610.03
2022-08-06T01:50:00.599Z,100616.81
2022-08-06T01:52:43.183Z,100620.59
2022-08-06T01:55:59.074Z,100614.41
2022-08-06T01:58:33.378Z,100618.91
2022-08-06T02:01:04.360Z,100615.22
2022-08-06T02:03:58.667Z,100607.09
2022-08-06T02:06:38.812Z,100612.50
2022-08-06T02:09:16.521Z,100606.47
2022-08-06T02:12:04.016Z,100610.41
2022-08-06T02:14:58.506Z,100605.53
2022-08-06T02:18:03.467Z,100608.44
2022-08-06T02:20:48.486Z,100606.78
2022-08-06T02:23:25.879Z,100605.63
2022-08-06T02:26:09.102Z,100600.63
2022-08-06T02:28:39.807Z,100605.53
2022-08-06T02:31:12.603Z,100599.69
2022-08-06T02:34:03.384Z,100606.63
2022-08-06T02:36:50.617Z,100595.19
2022-08-06T02:39:29.874Z,100605.28
2022-08-06T02:42:15.067Z,100600.06
2022-08-06T02:44:59.234Z,100599.00
2022-08-06T02:47:53.221Z,100598.50
2022-08-06T02:50:37.344Z,100593.66
2022-08-06T02:53:23.864Z,100593.47
2022-08-06T02:56:10.510Z,100593.69
2022-08-06T02:58:45.267Z,100590.63
2022-08-06T03:01:43.867Z,100604.22
2022-08-06T03:04:15.347Z,100598.63
2022-08-06T03:06:44.910Z,100594.47
2022-08-06T03:09:17.800Z,100594.75
2022-08-06T03:11:50.552Z,100594.97
2022-08-06T03:15:04.724Z,100601.38
2022-08-06T03:17:20.705Z,100597.31
2022-08-06T03:19:55.238Z,100598.44
2022-08-06T03:22:35.371Z,100607.69
2022-08-06T03:25:08.984Z,100607.19
2022-08-06T03:27:43.126Z,100594.09
2022-08-06T03:30:31.371Z,100595.50
2022-08-06T03:33:06.901Z,100591.19
2022-08-06T03:35:50.997Z,100586.69
2022-08-06T03:38:21.401Z,100586.94
2022-08-06T03:40:55.229Z,100592.28
2022-08-06T03:43:27.388Z,100593.84
2022-08-06T03:46:01.071Z,100595.03
2022-08-06T03:48:38.045Z,100596.06
2022-08-06T03:51:12.663Z,100598.28
2022-08-06T03:53:50.122Z,100604.47
2022-08-06T03:56:31.042Z,100596.28
2022-08-06T03:59:04.539Z,100599.44
2022-08-06T04:01:43.119Z,100600.78
2022-08-06T04:04:26.496Z,100598.06
2022-08-06T04:07:03.932Z,100600.63
2022-08-06T04:09:59.393Z,100600.28
2022-08-06T04:12:42.824Z,100600.09
2022-08-06T04:15:32.426Z,100598.44
2022-08-06T04:18:08.316Z,100613.34
2022-08-06T04:20:43.738Z,100612.81
2022-08-06T04:23:13.964Z,100608.47
2022-08-06T04:25:44.254Z,100609.94
2022-08-06T04:28:12.715Z,100610.09
2022-08-06T04:30:47.540Z,100615.03
2022-08-06T04:33:34.728Z,100623.06
2022-08-06T04:36:17.967Z,100614.88
2022-08-06T04:39:38.069Z,100627.41
2022-08-06T04:42:18.100Z,100635.19
2022-08-06T04:44:45.851Z,100632.03
2022-08-06T04:47:14.946Z,100628.41
2022-08-06T04:49:58.007Z,100632.78
2022-08-06T04:52:35.496Z,100629.06
2022-08-06T04:55:23.852Z,100636.53
2022-08-06T04:57:57.011Z,100640.84
2022-08-06T05:00:59.289Z,100646.38
2022-08-06T05:04:06.712Z,100648.75
2022-08-06T05:06:34.680Z,100653.72
2022-08-06T05:09:20.694Z,100651.75
2022-08-06T05:12:19.184Z,100657.88
2022-08-06T05:15:00.785Z,100658.09
2022-08-06T05:17:34.725Z,100660.63
2022-08-06T05:20:05.574Z,100675.91
2022-08-06T05:22:51.845Z,100673.28
2022-08-06T05:25:27.674Z,100676.75
2022-08-06T05:28:10.252Z,100675.19
2022-08-06T05:30:43.140Z,100669.50
2022-08-06T05:33:37.280Z,100665.22
2022-08-06T05:36:12.020Z,100668.94
2022-08-06T05:38:58.741Z,100670.22
2022-08-06T05:41:30.296Z,100673.09
2022-08-06T05:44:08.059Z,100677.97
2022-08-06T05:47:01.445Z,100676.41
2022-08-06T05:50:01.306Z,100675.81
2022-08-06T05:52:39.089Z,100671.09
2022-08-06T05:55:30.068Z,100673.31
2022-08-06T05:58:29.648Z,100673.44
2022-08-06T06:01:00.413Z,100670.97
2022-08-06T06:03:37.973Z,100680.09
2022-08-06T06:06:17.713Z,100675.78
2022-08-06T06:08:58.568Z,100679.44
2022-08-06T06:11:55.431Z,100680.25
2022-08-06T06:14:36.692Z,100674.06
2022-08-06T06:17:13.754Z,100666.94
2022-08-06T06:19:51.942Z,100679.00
2022-08-06T06:22:43.375Z,100666.72
2022-08-06T06:25:19.662Z,100677.41
2022-08-06T06:28:00.350Z,100675.00
2022-08-06T06:30:52.602Z,100673.03
2022-08-06T06:33:41.668Z,100666.63
2022-08-06T06:36:24.638Z,100674.41
2022-08-06T06:39:02.268Z,100674.13
2022-08-06T06:41:44.818Z,100676.97
2022-08-06T06:44:24.248Z,100676.53
2022-08-06T06:47:16.434Z,100677.47
2022-08-06T06:50:03.352Z,100672.03
2022-08-06T06:52:41.348Z,100674.38
2022-08-06T06:55:18.784Z,100677.16
2022-08-06T06:57:56.144Z,100680.03
2022-08-06T07:00:46.497Z,100682.22
2022-08-06T07:03:15.775Z,100671.59
2022-08-06T07:06:06.051Z,100675.13
2022-08-06T07:08:48.165Z,100684.00
2022-08-06T07:11:22.406Z,100684.22
2022-08-06T07:14:00.369Z,100675.19
2022-08-06T07:16:35.754Z,100674.00
2022-08-06T07:19:10.586Z,100677.97
2022-08-06T07:21:42.567Z,100683.97
2022-08-06T07:24:39.863Z,100673.31
2022-08-06T07:27:15.505Z,100674.69
2022-08-06T07:29:59.746Z,100676.34
2022-08-06T07:32:32.610Z,100679.47
2022-08-06T07:35:12.764Z,100678.25
2022-08-06T07:37:46.606Z,100678.28
2022-08-06T07:40:17.203Z,100683.50
2022-08-06T07:43:24.340Z,100688.34
2022-08-06T07:45:56.473Z,100679.97
2022-08-06T07:48:53.068Z,100684.38
2022-08-06T07:51:34.473Z,100678.78
2022-08-06T07:54:10.044Z,100686.75
2022-08-06T07:57:00.677Z,100678.00
2022-08-06T07:59:32.148Z,100683.19
2022-08-06T08:02:07.126Z,100679.19
2022-08-06T08:04:55.749Z,100677.19
2022-08-06T08:07:37.600Z,100686.81
2022-08-06T08:16:41.753Z,100673.97
2022-08-06T08:19:23.492Z,100679.94
2022-08-06T08:21:54.301Z,100679.59
2022-08-06T08:24:21.506Z,100674.75
2022-08-06T08:27:12.495Z,100681.50
2022-08-06T08:29:51.134Z,100680.97
2022-08-06T08:32:22.670Z,100672.94
2022-08-06T08:34:53.540Z,100679.88
2022-08-06T08:37:21.985Z,100672.69
2022-08-06T08:39:50.382Z,100678.50
2022-08-06T08:42:44.029Z,100681.47
2022-08-06T08:45:15.875Z,100692.56
2022-08-06T08:47:57.406Z,100697.72
2022-08-06T08:50:27.411Z,100688.94
2022-08-06T08:52:58.599Z,100690.66
2022-08-06T08:57:07.245Z,100696.91
2022-08-06T08:58:39.533Z,100694.16
2022-08-06T09:01:02.124Z,100703.28
2022-08-06T09:03:29.932Z,100694.28
2022-08-06T09:06:01.167Z,100695.91
2022-08-06T09:08:59.083Z,100698.69
2022-08-06T09:12:02.842Z,100702.53
2022-08-06T09:14:04.262Z,100700.53
2022-08-06T09:16:35.571Z,100696.06
2022-08-06T09:19:04.006Z,100708.59
2022-08-06T09:21:32.363Z,100707.44
2022-08-06T09:24:04.828Z,100713.81
2022-08-06T09:26:54.702Z,100694.94
2022-08-06T09:29:23.528Z,100706.00
2022-08-06T09:31:59.167Z,100705.78
2022-08-06T09:34:39.026Z,100706.38
2022-08-06T09:37:09.917Z,100701.78
2022-08-06T09:39:46.328Z,100696.81
2022-08-06T09:42:41.353Z,100710.47
2022-08-06T09:45:16.507Z,100703.94
2022-08-06T09:47:57.761Z,100696.16
2022-08-06T09:50:42.661Z,100704.69
2022-08-06T09:53:14.415Z,100693.44
2022-08-06T09:55:42.525Z,100698.03
2022-08-06T09:58:45.015Z,100707.06
2022-08-06T10:01:21.063Z,100700.09
2022-08-06T10:04:02.259Z,100701.31
2022-08-06T10:06:34.506Z,100699.28
2022-08-06T10:09:20.971Z,100690.16
2022-08-06T10:12:18.456Z,100690.56
2022-08-06T10:14:45.999Z,100681.59
2022-08-06T10:17:20.675Z,100678.97
2022-08-06T10:20:09.801Z,100680.72
2022-08-06T10:22:38.299Z,100679.94
2022-08-06T10:25:12.998Z,100677.28
2022-08-06T10:27:41.104Z,100675.56
2022-08-06T10:30:15.489Z,100673.09
2022-08-06T10:32:52.330Z,100670.66
2022-08-06T10:35:29.683Z,100665.41
2022-08-06T10:38:03.319Z,100666.03
2022-08-06T10:40:58.862Z,100659.59
2022-08-06T10:43:34.848Z,100658.53
2022-08-06T10:46:06.310Z,100658.00
2022-08-06T10:50:20.572Z,100660.22
2022-08-06T10:51:55.970Z,100658.38
2022-08-06T10:54:19.752Z,100638.84
2022-08-06T10:56:49.698Z,100645.19
2022-08-06T10:59:25.861Z,100649.13
2022-08-06T11:02:14.664Z,100653.06
2022-08-06T11:04:45.310Z,100659.56
2022-08-06T11:08:09.082Z,100655.00
2022-08-06T11:10:27.092Z,100663.94
2022-08-06T11:13:10.951Z,100646.44
2022-08-06T11:15:39.030Z,100647.84
2022-08-06T11:18:12.091Z,100641.22
2022-08-06T11:20:42.690Z,100647.72
2022-08-06T11:23:29.535Z,100642.03
2022-08-06T11:26:01.483Z,100631.84
2022-08-06T11:28:28.677Z,100639.91
2022-08-06T11:31:01.987Z,100630.28
2022-08-06T11:33:33.425Z,100634.53
2022-08-06T11:36:01.745Z,100633.31
2022-08-06T11:38:56.625Z,100625.94
2022-08-06T11:41:54.435Z,100621.28
2022-08-06T11:44:21.578Z,100611.22
2022-08-06T11:47:17.879Z,100613.06
2022-08-06T11:50:00.620Z,100613.47
2022-08-06T11:52:39.222Z,100600.06
2022-08-06T11:55:08.819Z,100601.97
2022-08-06T11:57:49.045Z,100593.25
2022-08-06T12:00:21.204Z,100605.53
2022-08-06T12:02:54.486Z,100599.81
2022-08-06T12:05:23.690Z,100592.38
2022-08-06T12:08:14.805Z,100594.13
2022-08-06T12:11:18.335Z,100588.59
2022-08-06T12:13:53.433Z,100598.44
2022-08-06T12:16:33.154Z,100585.63
2022-08-06T12:19:01.101Z,100579.81
2022-08-06T12:21:36.911Z,100599.44
2022-08-06T12:24:04.900Z,100587.06
2022-08-06T12:26:36.387Z,100577.31
2022-08-06T12:29:04.574Z,100576.09
2022-08-06T12:31:44.003Z,100576.59
2022-08-06T12:34:31.016Z,100575.53
2022-08-06T12:37:00.113Z,100574.16
2022-08-06T12:39:48.294Z,100580.53
2022-08-06T12:42:22.690Z,100573.16
2022-08-06T12:46:05.348Z,100572.78
2022-08-06T12:48:11.681Z,100560.25
2022-08-06T12:50:42.677Z,100569.13
2022-08-06T12:53:32.457Z,100571.75
2022-08-06T12:56:07.505Z,100581.00
2022-08-06T12:58:41.227Z,100573.38
2022-08-06T13:01:16.358Z,100578.84
2022-08-06T13:04:08.892Z,100578.91
2022-08-06T13:06:40.737Z,100587.19
2022-08-06T13:09:10.779Z,100572.22
2022-08-06T13:11:41.591Z,100579.63
2022-08-06T13:14:18.218Z,100570.81
2022-08-06T13:16:56.274Z,100572.84
2022-08-06T13:19:32.924Z,100577.38
2022-08-06T13:22:11.414Z,100569.09
2022-08-06T13:25:03.280Z,100569.16
2022-08-06T13:27:37.510Z,100562.91
2022-08-06T13:30:35.087Z,100564.09
2022-08-06T13:33:11.889Z,100560.31
2022-08-06T13:35:41.411Z,100567.38
2022-08-06T13:38:16.817Z,100571.59
2022-08-06T13:40:56.859Z,100571.59
2022-08-06T13:43:40.243Z,100572.13
2022-08-06T13:46:20.516Z,100575.91
2022-08-06T13:48:58.540Z,100566.78
2022-08-06T13:51:54.191Z,100561.97
2022-08-06T13:54:23.648Z,100556.44
2022-08-06T13:56:52.283Z,100551.03
2022-08-06T13:59:21.593Z,100550.09
2022-08-06T14:01:49.639Z,100544.09
2022-08-06T14:04:25.204Z,100552.13
2022-08-06T14:06:54.148Z,100561.84
2022-08-06T14:09:29.401Z,100557.78
2022-08-06T14:12:20.454Z,100557.53
2022-08-06T14:14:48.571Z,100548.72
2022-08-06T14:17:20.606Z,100556.19
2022-08-06T14:20:14.184Z,100553.75
2022-08-06T14:22:43.042Z,100562.72
2022-08-06T14:25:22.630Z,100554.72
2022-08-06T14:27:51.673Z,100564.84
2022-08-06T14:30:30.005Z,100562.34
2022-08-06T14:33:10.348Z,100572.44
2022-08-06T14:35:51.068Z,100585.59
2022-08-06T14:38:54.479Z,100576.44
2022-08-06T14:41:50.720Z,100580.59
2022-08-06T14:44:41.558Z,100587.81
2022-08-06T14:47:56.592Z,100589.28
2022-08-06T14:50:00.558Z,100578.47
2022-08-06T14:52:30.190Z,100580.34
2022-08-06T14:55:07.185Z,100591.19
2022-08-06T14:58:03.610Z,100592.34
2022-08-06T15:00:34.987Z,100589.78
2022-08-06T15:06:00.283Z,100604.06
2022-08-06T15:08:32.148Z,100595.53
2022-08-06T15:11:00.003Z,100602.78
2022-08-06T15:13:36.407Z,100604.34
2022-08-06T15:16:11.282Z,100605.06
2022-08-06T15:19:28.816Z,100617.53
2022-08-06T15:21:54.870Z,100623.88
2022-08-06T15:24:25.789Z,100634.31
2022-08-06T15:26:58.709Z,100639.16
2022-08-06T15:29:26.027Z,100640.59
2022-08-06T15:31:58.859Z,100646.63
2022-08-06T15:34:29.743Z,100650.72
2022-08-06T15:37:03.544Z,100659.53
2022-08-06T15:39:52.158Z,100663.19
2022-08-06T15:42:22.347Z,100668.38
2022-08-06T15:44:52.096Z,100681.97
2022-08-06T15:47:21.188Z,100686.38
2022-08-06T15:50:02.896Z,100685.16
2022-08-06T15:52:33.515Z,100692.72
2022-08-06T15:55:16.466Z,100695.06
2022-08-06T15:57:50.152Z,100699.38
2022-08-06T16:01:04.158Z,100708.13
2022-08-06T16:03:56.967Z,100704.81
2022-08-06T16:06:28.486Z,100707.56
2022-08-06T16:08:59.539Z,100710.38
2022-08-06T16:11:27.603Z,100700.41
2022-08-06T16:14:19.642Z,100694.69
2022-08-06T16:16:47.323Z,100689.91
2022-08-06T16:19:21.626Z,100684.75
2022-08-06T16:22:07.426Z,100674.47
2022-08-06T16:24:37.016Z,100661.34
2022-08-06T16:27:04.616Z,100652.94
2022-08-06T16:29:32.167Z,100648.94
2022-08-06T16:32:03.461Z,100643.34
2022-08-06T16:34:36.312Z,100652.13
2022-08-06T16:37:28.134Z,100636.22
2022-08-06T16:40:05.070Z,100643.78
2022-08-06T16:42:35.044Z,100645.34
2022-08-06T16:45:11.728Z,100659.63
2022-08-06T16:48:21.254Z,100667.44
2022-08-06T16:50:36.669Z,100671.91
2022-08-06T16:54:08.126Z,100683.09
2022-08-06T16:56:00.120Z,100706.16
2022-08-06T17:02:20.842Z,100755.44
2022-08-06T17:04:24.308Z,100791.31
2022-08-06T17:06:58.577Z,100799.81
2022-08-06T17:09:29.059Z,100819.19
2022-08-06T17:12:15.564Z,100810.03
2022-08-06T17:14:52.399Z,100810.34
2022-08-06T17:17:23.577Z,100816.16
2022-08-06T17:20:08.661Z,100807.97
2022-08-06T17:22:38.746Z,100803.22
2022-08-06T17:25:08.195Z,100785.31
2022-08-06T17:27:57.663Z,100840.66
2022-08-06T17:30:26.286Z,100839.13
2022-08-06T17:32:54.480Z,100827.69
2022-08-06T17:35:23.807Z,100834.84
2022-08-06T17:38:15.671Z,100882.78
2022-08-06T17:40:49.197Z,100891.31
2022-08-06T17:43:22.359Z,100879.47
2022-08-06T17:46:02.358Z,100885.78
2022-08-06T17:48:32.544Z,100896.16
2022-08-06T17:51:09.697Z,100892.47
2022-08-06T17:53:52.974Z,100899.69
2022-08-06T17:56:30.219Z,100902.97
2022-08-06T17:59:06.401Z,100897.81
2022-08-06T18:01:46.456Z,100891.34
2022-08-06T18:04:22.103Z,100888.84
2022-08-06T18:07:10.462Z,100866.28
2022-08-06T18:10:11.698Z,100867.31
2022-08-06T18:12:27.778Z,100860.53
2022-08-06T18:14:58.915Z,100862.59
2022-08-06T18:17:59.741Z,100861.69
2022-08-06T18:20:28.279Z,100863.75
2022-08-06T18:23:00.035Z,100857.41
2022-08-06T18:25:57.674Z,100858.16
2022-08-06T18:28:31.508Z,100874.72
2022-08-06T18:31:02.084Z,100875.28
2022-08-06T18:33:46.052Z,100872.53
2022-08-06T18:36:15.419Z,100867.53
2022-08-06T18:38:44.460Z,100865.25
2022-08-06T18:41:15.815Z,100867.31
2022-08-06T18:43:57.964Z,100855.22
2022-08-06T18:47:02.224Z,100860.88
2022-08-06T18:49:16.955Z,100856.94
2022-08-06T18:51:48.114Z,100864.75
2022-08-06T18:54:21.330Z,100858.16
2022-08-06T18:56:54.729Z,100848.63
2022-08-06T18:59:28.826Z,100857.75
2022-08-06T19:01:58.771Z,100849.34
2022-08-06T19:04:28.619Z,100841.59
2022-08-06T19:06:59.973Z,100833.28
2022-08-06T19:09:34.159Z,100835.84
2022-08-06T19:12:12.065Z,100840.81
2022-08-06T19:14:44.017Z,100828.56
2022-08-06T19:17:22.630Z,100815.53
2022-08-06T19:20:18.758Z,100832.34
2022-08-06T19:22:47.246Z,100815.19
2022-08-06T19:25:41.862Z,100811.19
2022-08-06T19:28:36.116Z,100802.34
2022-08-06T19:31:05.066Z,100815.81
2022-08-06T19:33:34.954Z,100830.97
2022-08-06T19:36:15.529Z,100822.44
2022-08-06T19:38:53.055Z,100825.81
2022-08-06T19:41:59.989Z,100835.44
2022-08-06T19:44:28.822Z,100848.84
2022-08-06T19:47:04.673Z,100845.91
2022-08-06T19:49:40.497Z,100854.63
2022-08-06T19:52:09.623Z,100861.41
2022-08-06T19:54:41.624Z,100864.25
2022-08-06T19:57:13.501Z,100868.19
2022-08-06T20:00:52.025Z,100873.03
2022-08-06T20:02:50.402Z,100865.44
2022-08-06T20:05:18.624Z,100862.28
2022-08-06T20:08:10.807Z,100865.63
2022-08-06T20:10:42.302Z,100871.47
2022-08-06T20:13:10.043Z,100872.00
2022-08-06T20:15:47.105Z,100880.50
2022-08-06T20:18:16.853Z,100882.41
2022-08-06T20:20:44.567Z,100883.84
2022-08-06T20:23:16.864Z,100881.22
2022-08-06T20:26:08.610Z,100877.38
2022-08-06T20:29:09.852Z,100869.72
2022-08-06T20:31:22.522Z,100869.88
2022-08-06T20:33:59.646Z,100869.34
2022-08-06T20:36:34.105Z,100863.75
2022-08-06T20:39:03.070Z,100862.84
2022-08-06T20:42:04.846Z,100865.91
2022-08-06T20:44:20.256Z,100870.94
2022-08-06T20:47:46.482Z,100866.28
2022-08-06T20:50:01.665Z,100857.19
2022-08-06T20:52:25.056Z,100851.25
2022-08-06T20:54:57.165Z,100856.00
2022-08-06T20:57:28.574Z,100848.09
2022-08-06T20:59:57.658Z,100847.50
2022-08-06T21:02:34.389Z,100858.66
2022-08-06T21:05:13.944Z,100855.38
2022-08-06T21:07:57.122Z,100869.06
2022-08-06T21:10:26.587Z,100872.47
2022-08-06T21:13:01.248Z,100874.31
2022-08-06T21:15:54.893Z,100869.97
2022-08-06T21:18:20.783Z,100870.53
2022-08-06T21:20:54.258Z,100878.13
2022-08-06T21:23:41.707Z,100881.22
2022-08-06T21:26:16.341Z,100896.13
2022-08-06T21:28:52.278Z,100909.53
2022-08-06T21:31:22.673Z,100911.56
2022-08-06T21:33:55.012Z,100918.78
2022-08-06T21:36:25.913Z,100912.38
2022-08-06T21:38:59.132Z,100914.97
2022-08-06T21:41:59.127Z,100908.69
2022-08-06T21:44:47.785Z,100914.97
2022-08-06T21:47:32.967Z,100908.56
2022-08-06T21:50:25.206Z,100901.84
2022-08-06T21:52:58.863Z,100900.75
2022-08-06T21:56:36.510Z,100905.16
2022-08-06T21:58:19.717Z,100897.16
2022-08-06T22:00:50.699Z,100892.03
2022-08-06T22:04:36.937Z,100897.63
2022-08-06T22:06:37.718Z,100892.94
2022-08-06T22:09:20.564Z,100896.47
2022-08-06T22:12:39.227Z,100920.47
2022-08-06T22:15:00.469Z,100934.09
2022-08-06T22:18:00.209Z,100939.38
2022-08-06T22:20:24.606Z,100951.25
2022-08-06T22:22:55.474Z,100960.06
2022-08-06T22:25:26.279Z,100969.31
2022-08-06T22:28:02.320Z,100976.72
2022-08-06T22:30:36.762Z,100974.69
2022-08-06T22:33:10.977Z,100981.84
2022-08-06T22:35:58.063Z,100982.81
2022-08-06T22:38:37.359Z,100988.84
2022-08-06T22:41:10.900Z,100991.56
2022-08-06T22:43:55.577Z,100986.59
2022-08-06T22:46:27.983Z,100997.75
2022-08-06T22:48:58.195Z,100994.91
2022-08-06T22:51:28.654Z,101000.78
2022-08-06T22:54:26.639Z,101010.97
2022-08-06T22:57:04.368Z,101006.75
2022-08-06T23:00:12.247Z,101023.66
2022-08-06T23:02:27.756Z,101018.03
2022-08-06T23:04:57.862Z,101018.94
2022-08-06T23:07:27.502Z,101019.22
2022-08-06T23:10:13.170Z,101018.88
2022-08-06T23:12:44.847Z,101025.72
2022-08-06T23:15:29.804Z,101016.03
2022-08-06T23:18:09.868Z,101015.94
2022-08-06T23:20:50.389Z,101007.56
2022-08-06T23:23:22.593Z,101006.16
2022-08-06T23:26:03.944Z,101000.75
2022-08-06T23:28:37.323Z,100992.22
2022-08-06T23:31:11.428Z,100994.16
2022-08-06T23:33:54.999Z,100997.72
2022-08-06T23:36:34.134Z,100995.69
2022-08-06T23:39:10.041Z,100990.31
2022-08-06T23:42:01.313Z,100980.94
2022-08-06T23:44:34.993Z,100984.09
2022-08-06T23:47:53.267Z,100994.50
2022-08-06T23:50:14.199Z,101011.81
2022-08-06T23:52:51.083Z,101004.47
2022-08-06T23:55:33.115Z,101005.66
2022-08-06T23:58:05.319Z,101005.72
